La Motte, IA

2:16 AM CDT on July 07, 2015 (GMT -0500)
Dubuque Regional | | Change Station
CLOSE
Current Station
Airport
Location: Dubuque,
Elevation: 1079 ft
Nearby Weather Stations

Elev 1079 ft 42.40 °N, 90.70 °W | Updated 23 minutes ago

Overcast
Overcast
61 °F
Feels Like 61 °F
N
13
Wind Variable Wind from North

Today
High -- | Low -- °F
--% Chance of Precip.
Yesterday
High -- | Low -- °F
Precip. -- in
5:33 AM 8:42 PM
Waning Gibbous, 67% visible
Pressure 29.91 in
Visibility 3.0 miles
Clouds Clear
Dew Point 56 °F
Humidity 83%
Rainfall 0.00 in
Snow Depth Not available.
UV 0 out of 12
Pollen 4.20 out of 12
Air Quality Not available.
Flu Activity Not available.
METAR KDBQ 070653Z AUTO 36011KT 3SM HZ CLR 16/13 A2992 RMK AO2 SLP128 T01610133

More Conditions Fewer Conditions

Pressure 29.91 in
Visibility 3.0 miles
Clouds Clear
Dew Point 56 °F
Humidity 83%
Rainfall 0.00 in
Snow Depth Not available.
UV 0 out of 12
Pollen 4.20 out of 12
Air Quality Not available.
Flu Activity Not available.
METAR KDBQ 070653Z AUTO 36011KT 3SM HZ CLR 16/13 A2992 RMK AO2 SLP128 T01610133

More Conditions Fewer Conditions

10-Day Weather Forecast

×

Almanac

Astronomy

Jul. 07, 2015 Rise Set
Actual Time
Civil Twilight
Nautical Twilight
Astronomical Twilight
Moon
Length of Visible Light
Length of Day
Tomorrow will be .
, % of the Moon is Illuminated

Today's Extremes

State Highs State Lows

Community

WunderPhotos

Upload Photos

1,835,756 photos uploaded!

WunderBlogs® & News

Nearby

Air Quality

  Air Quality AQ Index Pollutant
Not available.

Snow Depth

Station Depth Elevation

Earthquake Activity

City Distance Mag. Time & Date
Minimum magnitude displayed is 2.5.

Coastal Water Temperatures

Place Temperature

Stations

Nearby Weather Stations

Station Location Temp. Windchill Dew Point Humidity Wind Precip. Elev Updated Type